createdAt,value
2023-03-19T00:01:21.790Z,100165.34
2023-03-19T00:03:48.294Z,100175.84
2023-03-19T00:06:14.689Z,100169.13
2023-03-19T00:08:42.066Z,100176.34
2023-03-19T00:11:08.433Z,100171.44
2023-03-19T00:13:34.743Z,100174.22
2023-03-19T00:16:01.362Z,100178.81
2023-03-19T00:18:27.692Z,100174.25
2023-03-19T00:20:54.009Z,100177.03
2023-03-19T00:23:20.328Z,100175.09
2023-03-19T00:25:46.692Z,100172.63
2023-03-19T00:28:13.158Z,100173.66
2023-03-19T00:30:39.508Z,100168.75
2023-03-19T00:33:05.923Z,100179.03
2023-03-19T00:35:32.968Z,100174.47
2023-03-19T00:37:59.743Z,100167.09
2023-03-19T00:40:26.169Z,100169.78
2023-03-19T00:42:52.514Z,100174.75
2023-03-19T00:45:18.827Z,100165.69
2023-03-19T00:47:45.198Z,100165.00
2023-03-19T00:50:11.745Z,100162.28
2023-03-19T00:52:38.074Z,100165.53
2023-03-19T00:55:04.374Z,100161.50
2023-03-19T00:57:30.700Z,100162.16
2023-03-19T00:59:57.039Z,100157.25
2023-03-19T01:02:23.356Z,100167.03
2023-03-19T01:04:49.752Z,100170.81
2023-03-19T01:07:16.333Z,100168.06
2023-03-19T01:09:42.887Z,100165.06
2023-03-19T01:12:09.194Z,100171.91
2023-03-19T01:14:35.510Z,100188.97
2023-03-19T01:17:01.838Z,100177.81
2023-03-19T01:19:28.175Z,100176.66
2023-03-19T01:21:54.505Z,100173.75
2023-03-19T01:24:20.822Z,100157.25
2023-03-19T01:26:47.161Z,100157.41
2023-03-19T01:29:13.477Z,100160.03
2023-03-19T01:31:39.786Z,100161.69
2023-03-19T01:34:06.599Z,100150.38
2023-03-19T01:36:33.548Z,100143.38
2023-03-19T01:39:00.034Z,100153.03
2023-03-19T01:41:26.592Z,100145.53
2023-03-19T01:43:52.911Z,100149.78
2023-03-19T01:46:19.269Z,100158.78
2023-03-19T01:48:46.121Z,100154.88
2023-03-19T01:51:12.528Z,100145.37
2023-03-19T01:53:38.909Z,100143.88
2023-03-19T01:56:05.282Z,100145.19
2023-03-19T01:58:31.708Z,100149.63
2023-03-19T02:00:58.045Z,100146.19
2023-03-19T02:03:24.373Z,100148.81
2023-03-19T02:05:50.687Z,100164.03
2023-03-19T02:08:17.022Z,100162.06
2023-03-19T02:10:43.351Z,100172.50
2023-03-19T02:13:09.781Z,100174.47
2023-03-19T02:15:36.210Z,100169.59
2023-03-19T02:18:02.535Z,100163.72
2023-03-19T02:20:28.874Z,100167.31
2023-03-19T02:22:55.399Z,100151.59
2023-03-19T02:25:21.715Z,100160.28
2023-03-19T02:27:48.029Z,100149.31
2023-03-19T02:30:14.341Z,100159.31
2023-03-19T02:32:40.944Z,100153.41
2023-03-19T02:35:07.267Z,100151.31
2023-03-19T02:37:33.867Z,100148.00
2023-03-19T02:40:00.311Z,100150.31
2023-03-19T02:42:26.667Z,100149.84
2023-03-19T02:44:53.004Z,100155.22
2023-03-19T02:47:19.414Z,100157.81
2023-03-19T02:49:46.194Z,100153.56
2023-03-19T02:52:12.542Z,100152.41
2023-03-19T02:54:38.849Z,100145.06
2023-03-19T02:57:05.547Z,100148.53
2023-03-19T02:59:31.941Z,100150.62
2023-03-19T03:01:58.398Z,100144.75
2023-03-19T03:04:25.058Z,100138.53
2023-03-19T03:06:51.373Z,100137.22
2023-03-19T03:09:18.395Z,100141.31
2023-03-19T03:11:44.758Z,100151.50
2023-03-19T03:14:11.255Z,100145.25
2023-03-19T03:16:38.195Z,100153.75
2023-03-19T03:19:04.605Z,100165.75
2023-03-19T03:21:30.934Z,100175.09
2023-03-19T03:23:57.575Z,100180.00
2023-03-19T03:26:23.930Z,100184.09
2023-03-19T03:28:50.278Z,100188.66
2023-03-19T03:31:16.953Z,100188.84
2023-03-19T03:33:43.492Z,100195.56
2023-03-19T03:36:09.828Z,100193.94
2023-03-19T03:38:36.180Z,100194.94
2023-03-19T03:41:02.515Z,100183.47
2023-03-19T03:43:28.935Z,100184.28
2023-03-19T03:45:55.279Z,100176.44
2023-03-19T03:48:22.037Z,100174.16
2023-03-19T03:50:48.362Z,100186.41
2023-03-19T03:53:15.494Z,100191.47
2023-03-19T03:55:41.807Z,100185.59
2023-03-19T03:58:08.125Z,100191.00
2023-03-19T04:00:34.705Z,100194.78
2023-03-19T04:03:01.291Z,100194.94
2023-03-19T04:05:27.640Z,100196.41
2023-03-19T04:07:54.176Z,100185.94
2023-03-19T04:10:20.506Z,100191.16
2023-03-19T04:12:46.817Z,100189.22
2023-03-19T04:15:13.576Z,100191.69
2023-03-19T04:17:40.578Z,100187.59
2023-03-19T04:20:07.729Z,100189.22
2023-03-19T04:22:34.078Z,100192.97
2023-03-19T04:25:00.399Z,100181.22
2023-03-19T04:27:26.774Z,100178.94
2023-03-19T04:29:53.122Z,100184.16
2023-03-19T04:32:19.523Z,100181.84
2023-03-19T04:34:45.838Z,100179.59
2023-03-19T04:37:12.562Z,100180.22
2023-03-19T04:39:38.890Z,100185.44
2023-03-19T04:42:06.141Z,100192.81
2023-03-19T04:44:32.443Z,100178.25
2023-03-19T04:46:58.898Z,100182.50
2023-03-19T04:49:26.079Z,100180.69
2023-03-19T04:51:52.384Z,100183.97
2023-03-19T04:54:18.934Z,100178.09
2023-03-19T04:56:45.474Z,100180.69
2023-03-19T04:59:11.846Z,100175.16
2023-03-19T05:01:38.251Z,100181.72
2023-03-19T05:04:04.835Z,100184.62
2023-03-19T05:06:32.268Z,100183.00
2023-03-19T05:08:58.615Z,100180.72
2023-03-19T05:11:25.071Z,100192.97
2023-03-19T05:13:51.483Z,100194.78
2023-03-19T05:16:17.823Z,100200.81
2023-03-19T05:18:44.831Z,100196.72
2023-03-19T05:21:11.546Z,100196.72
2023-03-19T05:23:37.863Z,100186.94
2023-03-19T05:26:04.200Z,100192.97
2023-03-19T05:28:30.524Z,100187.06
2023-03-19T05:30:56.905Z,100186.75
2023-03-19T05:33:23.262Z,100193.63
2023-03-19T05:35:49.579Z,100184.66
2023-03-19T05:38:16.844Z,100188.56
2023-03-19T05:40:43.228Z,100185.94
2023-03-19T05:43:09.631Z,100178.94
2023-03-19T05:45:36.253Z,100192.00
2023-03-19T05:48:03.197Z,100185.31
2023-03-19T05:50:29.527Z,100184.97
2023-03-19T05:52:56.035Z,100197.38
2023-03-19T05:55:22.369Z,100200.50
2023-03-19T05:57:48.888Z,100199.03
2023-03-19T06:00:16.122Z,100207.22
2023-03-19T06:02:43.207Z,100207.84
2023-03-19T06:05:09.542Z,100202.94
2023-03-19T06:07:36.380Z,100203.91
2023-03-19T06:10:02.696Z,100205.25
2023-03-19T06:12:29.014Z,100213.25
2023-03-19T06:14:55.379Z,100219.28
2023-03-19T06:17:21.684Z,100220.59
2023-03-19T06:19:48.101Z,100210.59
2023-03-19T06:22:14.473Z,100213.34
2023-03-19T06:24:41.056Z,100222.50
2023-03-19T06:27:07.407Z,100210.44
2023-03-19T06:29:33.759Z,100207.16
2023-03-19T06:32:00.568Z,100210.28
2023-03-19T06:34:26.891Z,100201.78
2023-03-19T06:36:53.967Z,100204.66
2023-03-19T06:39:20.287Z,100207.28
2023-03-19T06:41:46.698Z,100206.16
2023-03-19T06:44:13.013Z,100206.75
2023-03-19T06:46:39.354Z,100208.00
2023-03-19T06:49:05.704Z,100205.31
2023-03-19T06:51:32.057Z,100206.69
2023-03-19T06:53:58.727Z,100213.41
2023-03-19T06:56:25.149Z,100209.75
2023-03-19T06:58:51.477Z,100219.59
2023-03-19T07:01:17.812Z,100222.53
2023-03-19T07:03:44.261Z,100218.69
2023-03-19T07:06:10.807Z,100218.16
2023-03-19T07:08:37.134Z,100221.62
2023-03-19T07:11:04.034Z,100227.63
2023-03-19T07:13:30.727Z,100229.44
2023-03-19T07:15:57.076Z,100230.97
2023-03-19T07:18:23.389Z,100235.09
2023-03-19T07:20:49.722Z,100240.87
2023-03-19T07:23:16.036Z,100243.38
2023-03-19T07:25:42.363Z,100256.59
2023-03-19T07:28:08.678Z,100243.06
2023-03-19T07:30:36.022Z,100250.06
2023-03-19T07:33:02.562Z,100253.59
2023-03-19T07:35:29.054Z,100256.44
2023-03-19T07:37:55.738Z,100252.81
2023-03-19T07:40:22.060Z,100257.00
2023-03-19T07:42:48.383Z,100251.56
2023-03-19T07:45:14.778Z,100251.13
2023-03-19T07:47:41.187Z,100250.53
2023-03-19T07:50:07.497Z,100249.28
2023-03-19T07:52:33.818Z,100248.75
2023-03-19T07:55:00.275Z,100249.22
2023-03-19T07:57:27.263Z,100247.50
2023-03-19T07:59:54.110Z,100245.41
2023-03-19T08:02:22.908Z,100239.47
2023-03-19T08:04:50.067Z,100234.94
2023-03-19T08:07:17.006Z,100237.66
2023-03-19T08:09:43.663Z,100242.62
2023-03-19T08:12:10.006Z,100246.12
2023-03-19T08:14:36.362Z,100238.22
2023-03-19T08:17:02.730Z,100239.44
2023-03-19T08:19:29.114Z,100236.91
2023-03-19T08:21:56.465Z,100240.22
2023-03-19T08:24:23.025Z,100239.16
2023-03-19T08:26:49.347Z,100246.81
2023-03-19T08:29:18.516Z,100243.81
2023-03-19T08:31:46.539Z,100246.16
2023-03-19T08:34:12.937Z,100244.75
2023-03-19T08:36:39.270Z,100258.56
2023-03-19T08:39:05.590Z,100252.72
2023-03-19T08:41:31.909Z,100247.63
2023-03-19T08:43:58.259Z,100244.88
2023-03-19T08:46:24.684Z,100247.03
2023-03-19T08:48:51.047Z,100250.50
2023-03-19T08:51:17.359Z,100246.87
2023-03-19T08:53:43.660Z,100252.28
2023-03-19T08:56:10.022Z,100252.16
2023-03-19T08:58:36.367Z,100240.44
2023-03-19T09:01:03.320Z,100252.53
2023-03-19T09:03:29.648Z,100240.25
2023-03-19T09:05:56.007Z,100244.25
2023-03-19T09:08:22.386Z,100239.72
2023-03-19T09:10:50.350Z,100245.59
2023-03-19T09:13:17.761Z,100246.06
2023-03-19T09:15:44.108Z,100255.41
2023-03-19T09:18:10.687Z,100243.25
2023-03-19T09:20:37.011Z,100254.28
2023-03-19T09:23:03.348Z,100251.41
2023-03-19T09:25:29.666Z,100245.03
2023-03-19T09:27:56.289Z,100245.53
2023-03-19T09:30:22.658Z,100251.19
2023-03-19T09:32:49.057Z,100261.72
2023-03-19T09:35:15.976Z,100249.84
2023-03-19T09:37:42.321Z,100242.25
2023-03-19T09:40:08.752Z,100253.22
2023-03-19T09:42:35.093Z,100242.66
2023-03-19T09:45:01.974Z,100250.69
2023-03-19T09:47:28.888Z,100252.31
2023-03-19T09:49:55.342Z,100244.84
2023-03-19T09:52:22.410Z,100247.41
2023-03-19T09:54:48.730Z,100240.87
2023-03-19T09:57:15.199Z,100230.44
2023-03-19T09:59:41.530Z,100236.28
2023-03-19T10:02:08.081Z,100236.06
2023-03-19T10:04:34.555Z,100235.44
2023-03-19T10:07:01.164Z,100231.38
2023-03-19T10:09:27.618Z,100232.44
2023-03-19T10:11:56.340Z,100228.88
2023-03-19T10:15:18.024Z,100229.41
2023-03-19T10:17:44.403Z,100229.41
2023-03-19T10:20:11.192Z,100221.66
2023-03-19T10:22:37.535Z,100222.94
2023-03-19T10:25:03.922Z,100219.84
2023-03-19T10:27:30.310Z,100224.72
2023-03-19T10:29:56.660Z,100226.28
2023-03-19T10:32:23.273Z,100230.53
2023-03-19T10:34:50.500Z,100230.03
2023-03-19T10:37:16.925Z,100229.16
2023-03-19T10:39:43.258Z,100223.97
2023-03-19T10:42:09.689Z,100223.13
2023-03-19T10:44:36.073Z,100231.06
2023-03-19T10:47:02.413Z,100226.87
2023-03-19T10:49:28.848Z,100221.53
2023-03-19T10:51:55.270Z,100223.75
2023-03-19T10:54:21.664Z,100220.97
2023-03-19T10:56:48.067Z,100218.66
2023-03-19T10:59:14.409Z,100221.66
2023-03-19T11:01:40.844Z,100215.03
2023-03-19T11:04:07.276Z,100223.44
2023-03-19T11:06:33.714Z,100211.22
2023-03-19T11:09:00.043Z,100208.22
2023-03-19T11:11:26.574Z,100211.22
2023-03-19T11:13:53.021Z,100206.69
2023-03-19T11:16:19.387Z,100210.97
2023-03-19T11:18:45.835Z,100212.44
2023-03-19T11:21:12.426Z,100205.12
2023-03-19T11:23:38.766Z,100208.50
2023-03-19T11:26:05.274Z,100203.37
2023-03-19T11:28:33.974Z,100186.66
2023-03-19T11:31:00.448Z,100195.47
2023-03-19T11:33:27.180Z,100190.47
2023-03-19T11:35:53.503Z,100187.81
2023-03-19T11:38:19.867Z,100193.63
2023-03-19T11:40:46.528Z,100187.41
2023-03-19T11:43:12.853Z,100188.69
2023-03-19T11:45:42.001Z,100184.25
2023-03-19T11:48:08.528Z,100185.69
2023-03-19T11:50:34.902Z,100186.00
2023-03-19T11:53:01.250Z,100179.03
2023-03-19T11:55:27.578Z,100183.13
2023-03-19T11:57:54.778Z,100178.34
2023-03-19T12:00:21.095Z,100187.59
2023-03-19T12:02:47.461Z,100173.13
2023-03-19T12:05:14.021Z,100183.13
2023-03-19T12:07:40.349Z,100183.94
2023-03-19T12:10:06.686Z,100181.84
2023-03-19T12:12:33.025Z,100180.63
2023-03-19T12:14:59.339Z,100178.22
2023-03-19T12:17:26.007Z,100179.22
2023-03-19T12:22:33.135Z,100180.44
2023-03-19T12:25:01.411Z,100176.13
2023-03-19T12:27:28.144Z,100184.84
2023-03-19T12:29:54.548Z,100182.28
2023-03-19T12:32:21.580Z,100185.19
2023-03-19T12:34:48.178Z,100186.22
2023-03-19T12:37:14.484Z,100179.25
2023-03-19T12:39:44.501Z,100172.16
2023-03-19T12:42:13.554Z,100174.00
2023-03-19T12:44:40.038Z,100177.97
2023-03-19T12:47:08.516Z,100173.22
2023-03-19T12:49:36.412Z,100172.25
2023-03-19T12:52:02.802Z,100170.00
2023-03-19T12:54:29.132Z,100170.66
2023-03-19T12:56:55.787Z,100168.88
2023-03-19T12:59:22.147Z,100180.22
2023-03-19T13:01:48.697Z,100169.09
2023-03-19T13:04:15.124Z,100179.87
2023-03-19T13:06:41.635Z,100179.78
2023-03-19T13:09:08.023Z,100173.22
2023-03-19T13:11:34.383Z,100182.72
2023-03-19T13:14:01.641Z,100173.19
2023-03-19T13:16:28.046Z,100171.41
2023-03-19T13:18:54.391Z,100172.47
2023-03-19T13:21:20.750Z,100183.53
2023-03-19T13:23:47.422Z,100178.34
2023-03-19T13:26:13.829Z,100176.72
2023-03-19T13:28:40.166Z,100176.34
2023-03-19T13:31:06.808Z,100178.91
2023-03-19T13:33:33.195Z,100176.75
2023-03-19T13:35:59.563Z,100178.91
2023-03-19T13:38:25.978Z,100168.63
2023-03-19T13:40:52.352Z,100178.12
2023-03-19T13:43:27.705Z,100173.28
2023-03-19T13:45:54.868Z,100181.81
2023-03-19T13:48:24.502Z,100171.69
2023-03-19T13:50:52.021Z,100179.03
2023-03-19T13:53:20.344Z,100166.50
2023-03-19T13:55:46.712Z,100166.22
2023-03-19T13:58:16.284Z,100170.78
2023-03-19T14:00:45.705Z,100166.88
2023-03-19T14:03:12.083Z,100164.50
2023-03-19T14:05:38.402Z,100168.12
2023-03-19T14:08:04.714Z,100165.31
2023-03-19T14:10:31.297Z,100164.50
2023-03-19T14:12:57.630Z,100167.38
2023-03-19T14:15:23.947Z,100170.88
2023-03-19T14:17:50.366Z,100160.00
2023-03-19T14:20:21.034Z,100173.50
2023-03-19T14:22:50.895Z,100167.16
2023-03-19T14:25:17.949Z,100172.25
2023-03-19T14:27:44.357Z,100169.09
2023-03-19T14:30:10.758Z,100170.78
2023-03-19T14:32:41.051Z,100166.44
2023-03-19T14:35:07.564Z,100167.94
2023-03-19T14:37:36.133Z,100164.34
2023-03-19T14:40:02.477Z,100167.53
2023-03-19T14:42:28.782Z,100163.16
2023-03-19T14:44:55.083Z,100164.72
2023-03-19T14:47:21.426Z,100161.12
2023-03-19T14:49:47.747Z,100161.94
2023-03-19T14:52:14.122Z,100157.88
2023-03-19T14:54:40.530Z,100160.94
2023-03-19T14:57:06.936Z,100160.13
2023-03-19T14:59:33.278Z,100164.50
2023-03-19T15:01:59.646Z,100163.97
2023-03-19T15:04:26.196Z,100167.78
2023-03-19T15:06:52.620Z,100160.59
2023-03-19T15:09:19.412Z,100168.59
2023-03-19T15:11:46.055Z,100170.09
2023-03-19T15:14:12.452Z,100167.78
2023-03-19T15:16:38.901Z,100164.41
2023-03-19T15:19:05.242Z,100169.41
2023-03-19T15:21:31.715Z,100165.41
2023-03-19T15:23:58.249Z,100162.69
2023-03-19T15:26:24.652Z,100169.66
2023-03-19T15:28:53.785Z,100168.12
2023-03-19T15:31:33.941Z,100172.13
2023-03-19T15:34:07.381Z,100164.50
2023-03-19T15:36:35.463Z,100169.69
2023-03-19T15:39:01.781Z,100170.47
2023-03-19T15:41:28.143Z,100171.25
2023-03-19T15:43:54.572Z,100174.44
2023-03-19T15:46:21.147Z,100178.84
2023-03-19T15:48:47.558Z,100176.69
2023-03-19T15:51:13.915Z,100178.50
2023-03-19T15:53:40.253Z,100189.84
2023-03-19T15:56:06.569Z,100195.25
2023-03-19T15:58:32.930Z,100198.09
2023-03-19T16:00:59.401Z,100202.06
2023-03-19T16:03:26.237Z,100202.31
2023-03-19T16:05:52.641Z,100205.12
2023-03-19T16:08:18.965Z,100205.59
2023-03-19T16:10:47.482Z,100216.59
2023-03-19T16:13:13.811Z,100213.06
2023-03-19T16:15:40.143Z,100217.03
2023-03-19T16:18:10.475Z,100221.53
2023-03-19T16:20:36.966Z,100222.78
2023-03-19T16:23:06.477Z,100233.16
2023-03-19T16:25:33.005Z,100225.91
2023-03-19T16:27:59.476Z,100231.78
2023-03-19T16:30:25.792Z,100235.16
2023-03-19T16:32:52.133Z,100233.34
2023-03-19T16:35:21.607Z,100235.91
2023-03-19T16:37:48.907Z,100247.94
2023-03-19T16:40:19.781Z,100251.00
2023-03-19T16:42:46.163Z,100252.91
2023-03-19T16:45:12.994Z,100257.63
2023-03-19T16:47:39.300Z,100266.34
2023-03-19T16:50:05.890Z,100257.25
2023-03-19T16:52:32.283Z,100267.16
2023-03-19T16:54:58.614Z,100266.06
2023-03-19T16:57:24.954Z,100273.66
2023-03-19T16:59:51.442Z,100283.34
2023-03-19T17:02:17.796Z,100280.38
2023-03-19T17:04:44.258Z,100282.22
2023-03-19T17:07:10.648Z,100278.78
2023-03-19T17:09:36.985Z,100278.59
2023-03-19T17:12:03.323Z,100286.56
2023-03-19T17:14:29.664Z,100286.84
2023-03-19T17:16:56.996Z,100289.91
2023-03-19T17:19:23.386Z,100296.88
2023-03-19T17:21:49.700Z,100290.34
2023-03-19T17:24:16.697Z,100302.94
2023-03-19T17:26:43.329Z,100292.00
2023-03-19T17:29:09.644Z,100289.09
2023-03-19T17:31:36.040Z,100290.66
2023-03-19T17:34:02.365Z,100291.66
2023-03-19T17:36:28.735Z,100295.28
2023-03-19T17:38:55.471Z,100294.81
2023-03-19T17:41:21.876Z,100291.63
2023-03-19T17:43:48.239Z,100293.06
2023-03-19T17:46:14.663Z,100297.38
2023-03-19T17:48:41.014Z,100299.28
2023-03-19T17:51:07.353Z,100301.13
2023-03-19T17:53:33.674Z,100303.22
2023-03-19T17:56:00.110Z,100295.53
2023-03-19T17:58:26.507Z,100304.53
2023-03-19T18:00:53.062Z,100309.34
2023-03-19T18:03:19.457Z,100305.47
2023-03-19T18:05:45.791Z,100309.09
2023-03-19T18:08:12.249Z,100302.31
2023-03-19T18:10:38.626Z,100301.59
2023-03-19T18:15:36.594Z,100306.72
2023-03-19T18:18:04.462Z,100313.66
2023-03-19T18:20:30.829Z,100324.16
2023-03-19T18:22:57.180Z,100319.94
2023-03-19T18:25:23.521Z,100314.22
2023-03-19T18:27:49.836Z,100323.09
2023-03-19T18:30:16.237Z,100319.50
2023-03-19T18:32:45.616Z,100319.63
2023-03-19T18:35:11.999Z,100318.84
2023-03-19T18:37:38.330Z,100322.00
2023-03-19T18:40:04.874Z,100329.53
2023-03-19T18:42:31.220Z,100320.00
2023-03-19T18:44:57.542Z,100322.88
2023-03-19T18:47:23.853Z,100325.44
2023-03-19T18:49:50.478Z,100327.16
2023-03-19T18:52:19.473Z,100324.38
2023-03-19T18:54:46.028Z,100325.75
2023-03-19T18:57:12.358Z,100323.41
2023-03-19T18:59:38.687Z,100333.41
2023-03-19T19:02:05.000Z,100331.91
2023-03-19T19:04:31.582Z,100337.38
2023-03-19T19:06:58.110Z,100343.59
2023-03-19T19:09:26.498Z,100330.59
2023-03-19T19:11:54.519Z,100335.06
2023-03-19T19:14:21.979Z,100331.22
2023-03-19T19:16:48.402Z,100329.78
2023-03-19T19:19:15.129Z,100338.56
2023-03-19T19:21:41.455Z,100337.75
2023-03-19T19:24:07.846Z,100339.16
2023-03-19T19:26:34.153Z,100346.38
2023-03-19T19:29:00.768Z,100342.31
2023-03-19T19:31:27.124Z,100346.28
2023-03-19T19:33:53.569Z,100343.47
2023-03-19T19:36:19.936Z,100356.06
2023-03-19T19:38:46.388Z,100361.56
2023-03-19T19:41:12.699Z,100349.31
2023-03-19T19:43:39.029Z,100355.28
2023-03-19T19:46:05.405Z,100353.28
2023-03-19T19:48:31.846Z,100357.16
2023-03-19T19:50:58.179Z,100356.91
2023-03-19T19:53:29.617Z,100354.59
2023-03-19T19:55:56.038Z,100354.34
2023-03-19T19:58:25.446Z,100365.53
2023-03-19T20:01:03.001Z,100360.75
2023-03-19T20:03:35.497Z,100366.72
2023-03-19T20:06:01.972Z,100363.22
2023-03-19T20:08:28.968Z,100372.19
2023-03-19T20:10:55.339Z,100360.66
2023-03-19T20:13:22.651Z,100363.34
2023-03-19T20:15:49.069Z,100365.44
2023-03-19T20:18:16.832Z,100365.09
2023-03-19T20:20:43.497Z,100371.25
2023-03-19T20:23:10.652Z,100368.81
2023-03-19T20:25:38.058Z,100371.03
2023-03-19T20:28:04.583Z,100371.63
2023-03-19T20:30:31.050Z,100370.81
2023-03-19T20:33:03.527Z,100379.56
2023-03-19T20:35:30.030Z,100383.50
2023-03-19T20:37:56.440Z,100389.28
2023-03-19T20:40:22.772Z,100380.69
2023-03-19T20:42:49.461Z,100378.63
2023-03-19T20:45:15.794Z,100375.31
2023-03-19T20:47:42.124Z,100380.25
2023-03-19T20:50:11.378Z,100383.69
2023-03-19T20:52:37.820Z,100387.31
2023-03-19T20:55:04.160Z,100386.19
2023-03-19T20:57:30.850Z,100382.87
2023-03-19T20:59:57.259Z,100380.59
2023-03-19T21:02:24.757Z,100377.06
2023-03-19T21:04:51.767Z,100386.72
2023-03-19T21:07:18.267Z,100382.31
2023-03-19T21:09:44.636Z,100384.41
2023-03-19T21:12:10.986Z,100384.41
2023-03-19T21:14:37.569Z,100384.75
2023-03-19T21:17:03.883Z,100387.19
2023-03-19T21:19:30.190Z,100384.62
2023-03-19T21:21:57.305Z,100380.78
2023-03-19T21:24:24.770Z,100385.44
2023-03-19T21:26:51.162Z,100378.47
2023-03-19T21:29:17.490Z,100388.59
2023-03-19T21:31:43.893Z,100377.62
2023-03-19T21:34:10.237Z,100374.84
2023-03-19T21:36:36.553Z,100386.13
2023-03-19T21:39:02.907Z,100372.97
2023-03-19T21:41:30.421Z,100372.37
2023-03-19T21:43:57.395Z,100375.50
2023-03-19T22:00:54.060Z,100377.50
2023-03-19T22:03:20.428Z,100376.78
2023-03-19T22:05:46.865Z,100382.72
2023-03-19T22:08:16.017Z,100380.50
2023-03-19T22:10:42.550Z,100377.56
2023-03-19T22:13:10.239Z,100373.47
2023-03-19T22:15:37.588Z,100384.12
2023-03-19T22:18:04.072Z,100373.06
2023-03-19T22:20:30.393Z,100380.78
2023-03-19T22:22:57.645Z,100375.31
2023-03-19T22:25:23.974Z,100381.62
2023-03-19T22:27:50.356Z,100382.16
2023-03-19T22:30:16.696Z,100386.13
2023-03-19T22:32:43.098Z,100383.03
2023-03-19T22:35:09.587Z,100386.16
2023-03-19T22:37:36.032Z,100389.13
2023-03-19T22:40:02.356Z,100386.81
2023-03-19T22:42:28.717Z,100395.84
2023-03-19T22:44:55.065Z,100399.72
2023-03-19T22:47:21.815Z,100390.94
2023-03-19T22:49:48.143Z,100396.81
2023-03-19T22:52:14.536Z,100392.44
2023-03-19T22:54:41.182Z,100385.16
2023-03-19T22:57:07.535Z,100388.25
2023-03-19T22:59:33.853Z,100385.31
2023-03-19T23:02:00.196Z,100391.69
2023-03-19T23:04:26.698Z,100388.25
2023-03-19T23:06:53.116Z,100386.37
2023-03-19T23:09:19.528Z,100385.25
2023-03-19T23:11:45.859Z,100379.66
2023-03-19T23:14:25.972Z,100378.50
2023-03-19T23:16:55.131Z,100387.00
2023-03-19T23:19:21.462Z,100392.91
2023-03-19T23:21:48.970Z,100383.69
2023-03-19T23:24:15.281Z,100390.06
2023-03-19T23:26:41.690Z,100387.75
2023-03-19T23:29:08.083Z,100387.28
2023-03-19T23:31:34.535Z,100390.06
2023-03-19T23:34:00.861Z,100387.00
2023-03-19T23:36:27.881Z,100381.41
2023-03-19T23:38:54.187Z,100394.03
2023-03-19T23:41:20.766Z,100383.37
2023-03-19T23:43:47.465Z,100374.28
2023-03-19T23:46:14.192Z,100381.16
2023-03-19T23:48:40.575Z,100388.09
2023-03-19T23:51:07.443Z,100373.44
2023-03-19T23:53:33.798Z,100377.94
2023-03-19T23:56:00.194Z,100386.94
2023-03-19T23:58:26.502Z,100390.06
